sensor_id;sensor_type;location;lat;lon;timestamp;temperature;humidity
60473;DHT22;46318;52.716;6.444;2023-03-03T00:01:11;1.90;99.90
60473;DHT22;46318;52.716;6.444;2023-03-03T00:03:37;1.90;99.90
60473;DHT22;46318;52.716;6.444;2023-03-03T00:06:03;1.90;99.90
60473;DHT22;46318;52.716;6.444;2023-03-03T00:08:30;1.90;99.90
60473;DHT22;46318;52.716;6.444;2023-03-03T00:10:57;1.90;99.90
60473;DHT22;46318;52.716;6.444;2023-03-03T00:13:26;1.90;99.90
60473;DHT22;46318;52.716;6.444;2023-03-03T00:15:53;1.80;99.90
60473;DHT22;46318;52.716;6.444;2023-03-03T00:18:36;1.80;99.90
60473;DHT22;46318;52.716;6.444;2023-03-03T00:22:00;1.80;99.90
60473;DHT22;46318;52.716;6.444;2023-03-03T00:24:14;1.80;99.90
60473;DHT22;46318;52.716;6.444;2023-03-03T00:26:46;1.80;99.90
60473;DHT22;46318;52.716;6.444;2023-03-03T00:31:51;1.80;99.90
60473;DHT22;46318;52.716;6.444;2023-03-03T00:36:43;1.80;99.90
60473;DHT22;46318;52.716;6.444;2023-03-03T00:41:59;1.80;99.90
60473;DHT22;46318;52.716;6.444;2023-03-03T00:44:41;1.80;99.90
60473;DHT22;46318;52.716;6.444;2023-03-03T00:52:34;1.80;99.90
60473;DHT22;46318;52.716;6.444;2023-03-03T00:55:05;1.80;99.90
60473;DHT22;46318;52.716;6.444;2023-03-03T00:57:32;1.80;99.90
60473;DHT22;46318;52.716;6.444;2023-03-03T00:59:58;1.80;99.90
60473;DHT22;46318;52.716;6.444;2023-03-03T01:02:24;1.80;99.90
60473;DHT22;46318;52.716;6.444;2023-03-03T01:04:52;1.70;99.90
60473;DHT22;46318;52.716;6.444;2023-03-03T01:07:22;1.80;99.90
60473;DHT22;46318;52.716;6.444;2023-03-03T01:09:48;1.80;99.90
60473;DHT22;46318;52.716;6.444;2023-03-03T01:12:14;1.80;99.90
60473;DHT22;46318;52.716;6.444;2023-03-03T01:14:41;1.80;99.90
60473;DHT22;46318;52.716;6.444;2023-03-03T01:17:07;1.80;99.90
60473;DHT22;46318;52.716;6.444;2023-03-03T01:19:33;1.80;99.90
60473;DHT22;46318;52.716;6.444;2023-03-03T01:22:00;1.80;99.90
60473;DHT22;46318;52.716;6.444;2023-03-03T01:24:26;1.80;99.90
60473;DHT22;46318;52.716;6.444;2023-03-03T01:26:52;1.80;99.90
60473;DHT22;46318;52.716;6.444;2023-03-03T01:29:17;1.80;99.90
60473;DHT22;46318;52.716;6.444;2023-03-03T01:31:43;1.80;99.90
60473;DHT22;46318;52.716;6.444;2023-03-03T01:34:09;1.80;99.90
60473;DHT22;46318;52.716;6.444;2023-03-03T01:36:35;1.80;99.90
60473;DHT22;46318;52.716;6.444;2023-03-03T01:39:02;1.80;99.90
60473;DHT22;46318;52.716;6.444;2023-03-03T01:41:29;1.80;99.90
60473;DHT22;46318;52.716;6.444;2023-03-03T01:43:58;1.80;99.90
60473;DHT22;46318;52.716;6.444;2023-03-03T01:46:47;1.80;99.90
60473;DHT22;46318;52.716;6.444;2023-03-03T01:49:37;1.80;99.90
60473;DHT22;46318;52.716;6.444;2023-03-03T01:52:21;1.80;99.90
60473;DHT22;46318;52.716;6.444;2023-03-03T01:54:56;1.80;99.90
60473;DHT22;46318;52.716;6.444;2023-03-03T01:57:32;1.80;99.90
60473;DHT22;46318;52.716;6.444;2023-03-03T02:00:04;1.90;99.90
60473;DHT22;46318;52.716;6.444;2023-03-03T02:02:31;1.90;99.90
60473;DHT22;46318;52.716;6.444;2023-03-03T02:04:57;1.80;99.90
60473;DHT22;46318;52.716;6.444;2023-03-03T02:07:24;1.90;99.90
60473;DHT22;46318;52.716;6.444;2023-03-03T02:10:14;1.90;99.90
60473;DHT22;46318;52.716;6.444;2023-03-03T02:12:49;1.90;99.90
60473;DHT22;46318;52.716;6.444;2023-03-03T02:15:24;1.90;99.90
60473;DHT22;46318;52.716;6.444;2023-03-03T02:18:17;1.90;99.90
60473;DHT22;46318;52.716;6.444;2023-03-03T02:21:01;1.90;99.90
60473;DHT22;46318;52.716;6.444;2023-03-03T02:26:34;1.90;99.90
60473;DHT22;46318;52.716;6.444;2023-03-03T02:29:03;1.90;99.90
60473;DHT22;46318;52.716;6.444;2023-03-03T02:31:30;1.90;99.90
60473;DHT22;46318;52.716;6.444;2023-03-03T02:33:57;1.90;99.90
60473;DHT22;46318;52.716;6.444;2023-03-03T02:36:28;1.90;99.90
60473;DHT22;46318;52.716;6.444;2023-03-03T02:39:29;1.90;99.90
60473;DHT22;46318;52.716;6.444;2023-03-03T02:42:07;1.90;99.90
60473;DHT22;46318;52.716;6.444;2023-03-03T02:44:37;1.90;99.90
60473;DHT22;46318;52.716;6.444;2023-03-03T02:47:03;1.90;99.90
60473;DHT22;46318;52.716;6.444;2023-03-03T02:49:31;1.90;99.90
60473;DHT22;46318;52.716;6.444;2023-03-03T02:51:59;1.90;99.90
60473;DHT22;46318;52.716;6.444;2023-03-03T02:54:27;1.90;99.90
60473;DHT22;46318;52.716;6.444;2023-03-03T02:56:55;1.90;99.90
60473;DHT22;46318;52.716;6.444;2023-03-03T02:59:22;1.90;99.90
60473;DHT22;46318;52.716;6.444;2023-03-03T03:01:48;1.90;99.90
60473;DHT22;46318;52.716;6.444;2023-03-03T03:04:16;1.90;99.90
60473;DHT22;46318;52.716;6.444;2023-03-03T03:06:45;1.90;99.90
60473;DHT22;46318;52.716;6.444;2023-03-03T03:09:13;1.90;99.90
60473;DHT22;46318;52.716;6.444;2023-03-03T03:11:40;1.90;99.90
60473;DHT22;46318;52.716;6.444;2023-03-03T03:14:08;1.90;99.90
60473;DHT22;46318;52.716;6.444;2023-03-03T03:16:35;1.90;99.90
60473;DHT22;46318;52.716;6.444;2023-03-03T03:19:02;1.90;99.90
60473;DHT22;46318;52.716;6.444;2023-03-03T03:21:29;1.90;99.90
60473;DHT22;46318;52.716;6.444;2023-03-03T03:23:55;1.90;99.90
60473;DHT22;46318;52.716;6.444;2023-03-03T03:26:21;1.90;99.90
60473;DHT22;46318;52.716;6.444;2023-03-03T03:28:48;1.90;99.90
60473;DHT22;46318;52.716;6.444;2023-03-03T03:31:15;1.90;99.90
60473;DHT22;46318;52.716;6.444;2023-03-03T03:33:42;1.90;99.90
60473;DHT22;46318;52.716;6.444;2023-03-03T03:36:08;2.00;99.90
60473;DHT22;46318;52.716;6.444;2023-03-03T03:38:35;2.00;99.90
60473;DHT22;46318;52.716;6.444;2023-03-03T03:41:02;2.00;99.90
60473;DHT22;46318;52.716;6.444;2023-03-03T03:43:29;2.00;99.90
60473;DHT22;46318;52.716;6.444;2023-03-03T03:45:55;2.00;99.90
60473;DHT22;46318;52.716;6.444;2023-03-03T03:48:21;1.90;99.90
60473;DHT22;46318;52.716;6.444;2023-03-03T03:50:47;2.00;99.90
60473;DHT22;46318;52.716;6.444;2023-03-03T03:53:14;2.00;99.90
60473;DHT22;46318;52.716;6.444;2023-03-03T03:55:41;2.00;99.90
60473;DHT22;46318;52.716;6.444;2023-03-03T03:58:07;2.00;99.90
60473;DHT22;46318;52.716;6.444;2023-03-03T04:00:34;2.00;99.90
60473;DHT22;46318;52.716;6.444;2023-03-03T04:02:59;2.00;99.90
60473;DHT22;46318;52.716;6.444;2023-03-03T04:05:25;2.00;99.90
60473;DHT22;46318;52.716;6.444;2023-03-03T04:07:51;2.00;99.90
60473;DHT22;46318;52.716;6.444;2023-03-03T04:10:17;2.00;99.90
60473;DHT22;46318;52.716;6.444;2023-03-03T04:12:43;2.00;99.90
60473;DHT22;46318;52.716;6.444;2023-03-03T04:15:11;2.00;99.90
60473;DHT22;46318;52.716;6.444;2023-03-03T04:17:38;2.10;99.90
60473;DHT22;46318;52.716;6.444;2023-03-03T04:20:06;2.10;99.90
60473;DHT22;46318;52.716;6.444;2023-03-03T04:22:32;2.10;99.90
60473;DHT22;46318;52.716;6.444;2023-03-03T04:25:04;2.10;99.90
60473;DHT22;46318;52.716;6.444;2023-03-03T04:27:35;2.10;99.90
60473;DHT22;46318;52.716;6.444;2023-03-03T04:30:02;2.10;99.90
60473;DHT22;46318;52.716;6.444;2023-03-03T04:32:29;2.10;99.90
60473;DHT22;46318;52.716;6.444;2023-03-03T04:34:58;2.10;99.90
60473;DHT22;46318;52.716;6.444;2023-03-03T04:37:24;2.10;99.90
60473;DHT22;46318;52.716;6.444;2023-03-03T04:39:50;2.10;99.90
60473;DHT22;46318;52.716;6.444;2023-03-03T04:42:16;2.20;99.90
60473;DHT22;46318;52.716;6.444;2023-03-03T04:44:42;2.10;99.90
60473;DHT22;46318;52.716;6.444;2023-03-03T04:47:09;2.20;99.90
60473;DHT22;46318;52.716;6.444;2023-03-03T04:49:35;2.20;99.90
60473;DHT22;46318;52.716;6.444;2023-03-03T04:52:01;2.20;99.90
60473;DHT22;46318;52.716;6.444;2023-03-03T04:54:27;2.20;99.90
60473;DHT22;46318;52.716;6.444;2023-03-03T04:56:53;2.20;99.90
60473;DHT22;46318;52.716;6.444;2023-03-03T04:59:19;2.20;99.90
60473;DHT22;46318;52.716;6.444;2023-03-03T05:01:45;2.20;99.90
60473;DHT22;46318;52.716;6.444;2023-03-03T05:04:11;2.20;99.90
60473;DHT22;46318;52.716;6.444;2023-03-03T05:06:37;2.20;99.90
60473;DHT22;46318;52.716;6.444;2023-03-03T05:09:03;2.30;99.90
60473;DHT22;46318;52.716;6.444;2023-03-03T05:11:29;2.30;99.90
60473;DHT22;46318;52.716;6.444;2023-03-03T05:13:57;2.30;99.90
60473;DHT22;46318;52.716;6.444;2023-03-03T05:16:23;2.20;99.90
60473;DHT22;46318;52.716;6.444;2023-03-03T05:18:49;2.30;99.90
60473;DHT22;46318;52.716;6.444;2023-03-03T05:21:15;2.30;99.90
60473;DHT22;46318;52.716;6.444;2023-03-03T05:23:41;2.30;99.90
60473;DHT22;46318;52.716;6.444;2023-03-03T05:26:07;2.30;99.90
60473;DHT22;46318;52.716;6.444;2023-03-03T05:28:33;2.30;99.90
60473;DHT22;46318;52.716;6.444;2023-03-03T05:30:59;2.30;99.90
60473;DHT22;46318;52.716;6.444;2023-03-03T05:33:24;2.30;99.90
60473;DHT22;46318;52.716;6.444;2023-03-03T05:35:54;2.30;99.90
60473;DHT22;46318;52.716;6.444;2023-03-03T05:38:22;2.40;99.90
60473;DHT22;46318;52.716;6.444;2023-03-03T05:40:48;2.30;99.90
60473;DHT22;46318;52.716;6.444;2023-03-03T05:43:14;2.30;99.90
60473;DHT22;46318;52.716;6.444;2023-03-03T05:45:40;2.40;99.90
60473;DHT22;46318;52.716;6.444;2023-03-03T05:48:06;2.40;99.90
60473;DHT22;46318;52.716;6.444;2023-03-03T05:50:35;2.40;99.90
60473;DHT22;46318;52.716;6.444;2023-03-03T05:53:01;2.40;99.90
60473;DHT22;46318;52.716;6.444;2023-03-03T05:55:27;2.40;99.90
60473;DHT22;46318;52.716;6.444;2023-03-03T05:57:53;2.40;99.90
60473;DHT22;46318;52.716;6.444;2023-03-03T06:00:19;2.40;99.90
60473;DHT22;46318;52.716;6.444;2023-03-03T06:02:46;2.40;99.90
60473;DHT22;46318;52.716;6.444;2023-03-03T06:05:11;2.40;99.90
60473;DHT22;46318;52.716;6.444;2023-03-03T06:07:37;2.40;99.90
60473;DHT22;46318;52.716;6.444;2023-03-03T06:10:04;2.40;99.90
60473;DHT22;46318;52.716;6.444;2023-03-03T06:12:30;2.40;99.90
60473;DHT22;46318;52.716;6.444;2023-03-03T06:14:56;2.40;99.90
60473;DHT22;46318;52.716;6.444;2023-03-03T06:17:22;2.40;99.90
60473;DHT22;46318;52.716;6.444;2023-03-03T06:19:48;2.40;99.90
60473;DHT22;46318;52.716;6.444;2023-03-03T06:22:14;2.40;99.90
60473;DHT22;46318;52.716;6.444;2023-03-03T06:24:39;2.50;99.90
60473;DHT22;46318;52.716;6.444;2023-03-03T06:27:05;2.50;99.90
60473;DHT22;46318;52.716;6.444;2023-03-03T06:29:32;2.50;99.90
60473;DHT22;46318;52.716;6.444;2023-03-03T06:31:57;2.50;99.90
60473;DHT22;46318;52.716;6.444;2023-03-03T06:34:23;2.50;99.90
60473;DHT22;46318;52.716;6.444;2023-03-03T06:36:49;2.50;99.90
60473;DHT22;46318;52.716;6.444;2023-03-03T06:39:15;2.50;99.90
60473;DHT22;46318;52.716;6.444;2023-03-03T06:41:41;2.50;99.90
60473;DHT22;46318;52.716;6.444;2023-03-03T06:44:07;2.50;99.90
60473;DHT22;46318;52.716;6.444;2023-03-03T06:46:33;2.50;99.90
60473;DHT22;46318;52.716;6.444;2023-03-03T06:48:58;2.50;99.90
60473;DHT22;46318;52.716;6.444;2023-03-03T06:51:30;2.50;99.90
60473;DHT22;46318;52.716;6.444;2023-03-03T06:54:15;2.50;99.90
60473;DHT22;46318;52.716;6.444;2023-03-03T06:56:43;2.50;99.90
60473;DHT22;46318;52.716;6.444;2023-03-03T06:59:17;2.60;99.90
60473;DHT22;46318;52.716;6.444;2023-03-03T07:01:47;2.50;99.90
60473;DHT22;46318;52.716;6.444;2023-03-03T07:04:21;2.50;99.90
60473;DHT22;46318;52.716;6.444;2023-03-03T07:06:50;2.60;99.90
60473;DHT22;46318;52.716;6.444;2023-03-03T07:09:25;2.60;99.90
60473;DHT22;46318;52.716;6.444;2023-03-03T07:11:59;2.60;99.90
60473;DHT22;46318;52.716;6.444;2023-03-03T07:14:27;2.60;99.90
60473;DHT22;46318;52.716;6.444;2023-03-03T07:16:59;2.60;99.90
60473;DHT22;46318;52.716;6.444;2023-03-03T07:19:34;2.60;99.90
60473;DHT22;46318;52.716;6.444;2023-03-03T07:22:22;2.60;99.90
60473;DHT22;46318;52.716;6.444;2023-03-03T07:24:51;2.60;99.90
60473;DHT22;46318;52.716;6.444;2023-03-03T07:27:22;2.60;99.90
60473;DHT22;46318;52.716;6.444;2023-03-03T07:29:52;2.60;99.90
60473;DHT22;46318;52.716;6.444;2023-03-03T07:32:40;2.60;99.90
60473;DHT22;46318;52.716;6.444;2023-03-03T07:37:54;2.70;99.90
60473;DHT22;46318;52.716;6.444;2023-03-03T07:42:59;2.70;99.90
60473;DHT22;46318;52.716;6.444;2023-03-03T07:45:28;2.70;99.90
60473;DHT22;46318;52.716;6.444;2023-03-03T07:48:08;2.70;99.90
60473;DHT22;46318;52.716;6.444;2023-03-03T07:50:42;2.70;99.90
60473;DHT22;46318;52.716;6.444;2023-03-03T07:53:29;2.70;99.90
60473;DHT22;46318;52.716;6.444;2023-03-03T07:55:59;2.80;99.90
60473;DHT22;46318;52.716;6.444;2023-03-03T07:58:37;2.80;99.90
60473;DHT22;46318;52.716;6.444;2023-03-03T08:03:52;2.80;99.90
60473;DHT22;46318;52.716;6.444;2023-03-03T08:08:59;2.80;99.90
60473;DHT22;46318;52.716;6.444;2023-03-03T08:11:27;2.80;99.90
60473;DHT22;46318;52.716;6.444;2023-03-03T08:13:53;2.90;99.90
60473;DHT22;46318;52.716;6.444;2023-03-03T08:16:37;2.90;99.90
60473;DHT22;46318;52.716;6.444;2023-03-03T08:19:04;2.90;99.90
60473;DHT22;46318;52.716;6.444;2023-03-03T08:21:31;2.90;99.90
60473;DHT22;46318;52.716;6.444;2023-03-03T08:23:58;3.00;99.90
60473;DHT22;46318;52.716;6.444;2023-03-03T08:26:25;3.00;99.90
60473;DHT22;46318;52.716;6.444;2023-03-03T08:28:52;3.00;99.90
60473;DHT22;46318;52.716;6.444;2023-03-03T08:31:18;3.10;99.90
60473;DHT22;46318;52.716;6.444;2023-03-03T08:33:45;3.10;99.90
60473;DHT22;46318;52.716;6.444;2023-03-03T08:36:11;3.10;99.90
60473;DHT22;46318;52.716;6.444;2023-03-03T08:38:38;3.10;99.90
60473;DHT22;46318;52.716;6.444;2023-03-03T08:41:04;3.20;99.90
60473;DHT22;46318;52.716;6.444;2023-03-03T08:43:31;3.20;99.90
60473;DHT22;46318;52.716;6.444;2023-03-03T08:45:58;3.20;99.90
60473;DHT22;46318;52.716;6.444;2023-03-03T08:48:26;3.20;99.90
60473;DHT22;46318;52.716;6.444;2023-03-03T08:50:53;3.30;99.90
60473;DHT22;46318;52.716;6.444;2023-03-03T08:53:20;3.30;99.90
60473;DHT22;46318;52.716;6.444;2023-03-03T08:55:47;3.30;99.90
60473;DHT22;46318;52.716;6.444;2023-03-03T08:58:16;3.30;99.90
60473;DHT22;46318;52.716;6.444;2023-03-03T09:00:44;3.40;99.90
60473;DHT22;46318;52.716;6.444;2023-03-03T09:03:10;3.40;99.90
60473;DHT22;46318;52.716;6.444;2023-03-03T09:05:38;3.40;99.90
60473;DHT22;46318;52.716;6.444;2023-03-03T09:08:06;3.50;99.90
60473;DHT22;46318;52.716;6.444;2023-03-03T09:10:33;3.50;99.90
60473;DHT22;46318;52.716;6.444;2023-03-03T09:13:14;3.50;99.90
60473;DHT22;46318;52.716;6.444;2023-03-03T09:15:42;3.50;99.90
60473;DHT22;46318;52.716;6.444;2023-03-03T09:18:15;3.60;99.90
60473;DHT22;46318;52.716;6.444;2023-03-03T09:20:44;3.60;99.90
60473;DHT22;46318;52.716;6.444;2023-03-03T09:25:57;3.70;99.90
60473;DHT22;46318;52.716;6.444;2023-03-03T09:28:30;3.70;99.90
60473;DHT22;46318;52.716;6.444;2023-03-03T09:31:01;3.70;99.90
60473;DHT22;46318;52.716;6.444;2023-03-03T09:33:39;3.70;99.90
60473;DHT22;46318;52.716;6.444;2023-03-03T09:38:57;3.80;99.90
60473;DHT22;46318;52.716;6.444;2023-03-03T09:50:25;4.00;99.90
60473;DHT22;46318;52.716;6.444;2023-03-03T10:21:50;4.50;99.90
60473;DHT22;46318;52.716;6.444;2023-03-03T10:24:30;4.50;99.90
60473;DHT22;46318;52.716;6.444;2023-03-03T10:30:12;4.60;99.90
60473;DHT22;46318;52.716;6.444;2023-03-03T10:32:58;4.60;99.90
60473;DHT22;46318;52.716;6.444;2023-03-03T10:50:54;4.80;99.90
60473;DHT22;46318;52.716;6.444;2023-03-03T10:54:02;4.90;99.90
60473;DHT22;46318;52.716;6.444;2023-03-03T11:00:00;5.00;99.90
60473;DHT22;46318;52.716;6.444;2023-03-03T11:03:28;5.00;99.90
60473;DHT22;46318;52.716;6.444;2023-03-03T11:06:25;5.10;99.90
60473;DHT22;46318;52.716;6.444;2023-03-03T11:21:22;5.40;99.90
60473;DHT22;46318;52.716;6.444;2023-03-03T11:24:18;5.40;99.90
60473;DHT22;46318;52.716;6.444;2023-03-03T11:29:44;5.60;99.90
60473;DHT22;46318;52.716;6.444;2023-03-03T11:32:39;5.60;99.90
60473;DHT22;46318;52.716;6.444;2023-03-03T11:35:20;5.70;99.90
60473;DHT22;46318;52.716;6.444;2023-03-03T11:37:58;5.70;99.90
60473;DHT22;46318;52.716;6.444;2023-03-03T11:45:56;5.90;99.90
60473;DHT22;46318;52.716;6.444;2023-03-03T11:48:56;6.00;99.90
60473;DHT22;46318;52.716;6.444;2023-03-03T12:03:28;6.40;99.90
60473;DHT22;46318;52.716;6.444;2023-03-03T12:26:35;7.40;99.90
60473;DHT22;46318;52.716;6.444;2023-03-03T12:32:21;7.40;99.90
60473;DHT22;46318;52.716;6.444;2023-03-03T12:44:22;7.50;99.90
60473;DHT22;46318;52.716;6.444;2023-03-03T12:53:03;7.50;99.90
60473;DHT22;46318;52.716;6.444;2023-03-03T12:56:04;7.50;99.90
60473;DHT22;46318;52.716;6.444;2023-03-03T13:07:34;7.50;99.90
60473;DHT22;46318;52.716;6.444;2023-03-03T13:12:48;7.60;99.90
60473;DHT22;46318;52.716;6.444;2023-03-03T13:15:20;7.60;99.90
60473;DHT22;46318;52.716;6.444;2023-03-03T13:23:34;7.60;99.90
60473;DHT22;46318;52.716;6.444;2023-03-03T13:26:19;7.60;99.90
60473;DHT22;46318;52.716;6.444;2023-03-03T13:29:11;7.70;99.90
60473;DHT22;46318;52.716;6.444;2023-03-03T13:31:46;7.70;99.90
60473;DHT22;46318;52.716;6.444;2023-03-03T13:34:31;7.70;99.90
60473;DHT22;46318;52.716;6.444;2023-03-03T13:37:21;7.70;99.90
60473;DHT22;46318;52.716;6.444;2023-03-03T13:40:02;7.70;99.90
60473;DHT22;46318;52.716;6.444;2023-03-03T13:42:40;7.80;99.90
60473;DHT22;46318;52.716;6.444;2023-03-03T13:48:35;7.90;99.90
60473;DHT22;46318;52.716;6.444;2023-03-03T13:56:27;8.00;99.90
60473;DHT22;46318;52.716;6.444;2023-03-03T14:10:33;8.10;99.90
60473;DHT22;46318;52.716;6.444;2023-03-03T14:13:07;8.10;99.90
60473;DHT22;46318;52.716;6.444;2023-03-03T14:18:35;8.20;99.90
60473;DHT22;46318;52.716;6.444;2023-03-03T14:21:15;8.20;99.90
60473;DHT22;46318;52.716;6.444;2023-03-03T14:26:56;8.20;99.90
60473;DHT22;46318;52.716;6.444;2023-03-03T14:31:53;8.20;99.90
60473;DHT22;46318;52.716;6.444;2023-03-03T14:36:57;8.20;99.90
60473;DHT22;46318;52.716;6.444;2023-03-03T14:39:38;8.10;99.90
60473;DHT22;46318;52.716;6.444;2023-03-03T14:42:12;8.10;99.90
60473;DHT22;46318;52.716;6.444;2023-03-03T14:45:00;8.10;99.90
60473;DHT22;46318;52.716;6.444;2023-03-03T14:47:29;8.10;99.90
60473;DHT22;46318;52.716;6.444;2023-03-03T14:49:56;8.10;99.90
60473;DHT22;46318;52.716;6.444;2023-03-03T14:52:40;8.10;99.90
60473;DHT22;46318;52.716;6.444;2023-03-03T14:55:30;8.10;99.90
60473;DHT22;46318;52.716;6.444;2023-03-03T14:57:58;8.00;99.40
60473;DHT22;46318;52.716;6.444;2023-03-03T15:03:21;8.00;99.90
60473;DHT22;46318;52.716;6.444;2023-03-03T15:05:54;8.00;99.10
60473;DHT22;46318;52.716;6.444;2023-03-03T15:08:35;7.90;99.40
60473;DHT22;46318;52.716;6.444;2023-03-03T15:11:26;7.90;99.40
60473;DHT22;46318;52.716;6.444;2023-03-03T15:14:03;7.90;99.80
60473;DHT22;46318;52.716;6.444;2023-03-03T15:16:35;7.90;99.90
60473;DHT22;46318;52.716;6.444;2023-03-03T15:19:28;7.90;99.90
60473;DHT22;46318;52.716;6.444;2023-03-03T15:22:18;7.90;99.50
60473;DHT22;46318;52.716;6.444;2023-03-03T15:25:09;8.00;99.90
60473;DHT22;46318;52.716;6.444;2023-03-03T15:27:46;8.00;99.80
60473;DHT22;46318;52.716;6.444;2023-03-03T15:30:28;7.90;99.90
60473;DHT22;46318;52.716;6.444;2023-03-03T15:33:21;7.90;99.90
60473;DHT22;46318;52.716;6.444;2023-03-03T15:39:22;7.90;99.10
60473;DHT22;46318;52.716;6.444;2023-03-03T15:50:33;7.80;99.90
60473;DHT22;46318;52.716;6.444;2023-03-03T15:59:32;7.70;99.90
60473;DHT22;46318;52.716;6.444;2023-03-03T16:02:20;7.70;99.90
60473;DHT22;46318;52.716;6.444;2023-03-03T16:13:58;7.60;99.90
60473;DHT22;46318;52.716;6.444;2023-03-03T16:19:57;7.60;99.90
60473;DHT22;46318;52.716;6.444;2023-03-03T16:22:35;7.50;99.30
60473;DHT22;46318;52.716;6.444;2023-03-03T16:25:43;7.50;99.90
60473;DHT22;46318;52.716;6.444;2023-03-03T16:28:24;7.50;99.70
60473;DHT22;46318;52.716;6.444;2023-03-03T16:31:06;7.40;99.90
60473;DHT22;46318;52.716;6.444;2023-03-03T16:39:14;7.30;99.90
60473;DHT22;46318;52.716;6.444;2023-03-03T16:44:48;7.30;99.90
60473;DHT22;46318;52.716;6.444;2023-03-03T16:47:52;7.30;99.90
60473;DHT22;46318;52.716;6.444;2023-03-03T16:53:38;7.30;99.90
60473;DHT22;46318;52.716;6.444;2023-03-03T16:58:58;7.20;99.90
60473;DHT22;46318;52.716;6.444;2023-03-03T17:18:48;7.00;99.90
60473;DHT22;46318;52.716;6.444;2023-03-03T17:24:28;7.00;99.90
60473;DHT22;46318;52.716;6.444;2023-03-03T17:30:19;7.00;99.90
60473;DHT22;46318;52.716;6.444;2023-03-03T17:38:36;6.90;99.90
60473;DHT22;46318;52.716;6.444;2023-03-03T17:44:19;6.90;99.90
60473;DHT22;46318;52.716;6.444;2023-03-03T17:47:08;6.90;99.90
60473;DHT22;46318;52.716;6.444;2023-03-03T17:49:59;6.90;99.90
60473;DHT22;46318;52.716;6.444;2023-03-03T17:56:20;6.80;99.90
60473;DHT22;46318;52.716;6.444;2023-03-03T17:59:09;6.80;99.90
60473;DHT22;46318;52.716;6.444;2023-03-03T18:22:52;6.70;99.90
60473;DHT22;46318;52.716;6.444;2023-03-03T18:25:24;6.70;99.90
60473;DHT22;46318;52.716;6.444;2023-03-03T18:28:22;6.70;99.90
60473;DHT22;46318;52.716;6.444;2023-03-03T18:30:57;6.70;99.90
60473;DHT22;46318;52.716;6.444;2023-03-03T18:36:36;6.60;99.90
60473;DHT22;46318;52.716;6.444;2023-03-03T18:39:05;6.60;99.90
60473;DHT22;46318;52.716;6.444;2023-03-03T18:42:03;6.60;99.90
60473;DHT22;46318;52.716;6.444;2023-03-03T18:44:57;6.60;99.90
60473;DHT22;46318;52.716;6.444;2023-03-03T18:48:12;6.60;99.90
60473;DHT22;46318;52.716;6.444;2023-03-03T18:50:49;6.60;99.90
60473;DHT22;46318;52.716;6.444;2023-03-03T18:53:29;6.60;99.90
60473;DHT22;46318;52.716;6.444;2023-03-03T18:56:00;6.60;99.90
60473;DHT22;46318;52.716;6.444;2023-03-03T18:58:36;6.60;99.90
60473;DHT22;46318;52.716;6.444;2023-03-03T19:09:04;6.60;99.90
60473;DHT22;46318;52.716;6.444;2023-03-03T19:11:51;6.60;99.90
60473;DHT22;46318;52.716;6.444;2023-03-03T19:14:31;6.60;99.90
60473;DHT22;46318;52.716;6.444;2023-03-03T19:20:13;6.50;99.90
60473;DHT22;46318;52.716;6.444;2023-03-03T19:22:51;6.50;99.90
60473;DHT22;46318;52.716;6.444;2023-03-03T19:25:27;6.40;99.90
60473;DHT22;46318;52.716;6.444;2023-03-03T19:31:04;6.40;99.90
60473;DHT22;46318;52.716;6.444;2023-03-03T19:33:52;6.40;99.90
60473;DHT22;46318;52.716;6.444;2023-03-03T19:42:02;6.40;99.90
60473;DHT22;46318;52.716;6.444;2023-03-03T19:45:14;6.40;99.90
60473;DHT22;46318;52.716;6.444;2023-03-03T19:48:33;6.40;99.90
60473;DHT22;46318;52.716;6.444;2023-03-03T20:03:29;6.30;99.90
60473;DHT22;46318;52.716;6.444;2023-03-03T20:09:17;6.30;99.90
60473;DHT22;46318;52.716;6.444;2023-03-03T20:12:07;6.30;99.90
60473;DHT22;46318;52.716;6.444;2023-03-03T20:14:50;6.30;99.90
60473;DHT22;46318;52.716;6.444;2023-03-03T20:26:20;6.30;99.90
60473;DHT22;46318;52.716;6.444;2023-03-03T20:32:06;6.20;99.90
60473;DHT22;46318;52.716;6.444;2023-03-03T20:43:45;6.20;99.90
60473;DHT22;46318;52.716;6.444;2023-03-03T20:57:53;6.10;99.90
60473;DHT22;46318;52.716;6.444;2023-03-03T21:03:34;6.10;99.90
60473;DHT22;46318;52.716;6.444;2023-03-03T21:06:04;6.20;99.90
60473;DHT22;46318;52.716;6.444;2023-03-03T21:08:53;6.10;99.90
60473;DHT22;46318;52.716;6.444;2023-03-03T21:11:22;6.10;99.90
60473;DHT22;46318;52.716;6.444;2023-03-03T21:13:58;6.10;99.90
60473;DHT22;46318;52.716;6.444;2023-03-03T21:21:38;6.10;99.90
60473;DHT22;46318;52.716;6.444;2023-03-03T21:24:08;6.10;99.90
60473;DHT22;46318;52.716;6.444;2023-03-03T21:26:45;6.10;99.90
60473;DHT22;46318;52.716;6.444;2023-03-03T21:29:29;6.00;99.90
60473;DHT22;46318;52.716;6.444;2023-03-03T21:32:01;6.10;99.90
60473;DHT22;46318;52.716;6.444;2023-03-03T21:34:32;6.00;99.90
60473;DHT22;46318;52.716;6.444;2023-03-03T21:37:12;6.10;99.90
60473;DHT22;46318;52.716;6.444;2023-03-03T21:39:43;6.10;99.90
60473;DHT22;46318;52.716;6.444;2023-03-03T21:42:10;6.00;99.90
60473;DHT22;46318;52.716;6.444;2023-03-03T21:44:48;6.10;99.90
60473;DHT22;46318;52.716;6.444;2023-03-03T21:47:17;6.00;99.90
60473;DHT22;46318;52.716;6.444;2023-03-03T21:49:46;6.00;99.90
60473;DHT22;46318;52.716;6.444;2023-03-03T21:52:14;6.00;99.90
60473;DHT22;46318;52.716;6.444;2023-03-03T21:54:42;6.00;99.90
60473;DHT22;46318;52.716;6.444;2023-03-03T21:57:09;6.00;99.90
60473;DHT22;46318;52.716;6.444;2023-03-03T21:59:35;6.00;99.90
60473;DHT22;46318;52.716;6.444;2023-03-03T22:02:02;6.00;99.90
60473;DHT22;46318;52.716;6.444;2023-03-03T22:04:28;6.00;99.90
60473;DHT22;46318;52.716;6.444;2023-03-03T22:06:55;6.00;99.90
60473;DHT22;46318;52.716;6.444;2023-03-03T22:09:21;6.00;99.90
60473;DHT22;46318;52.716;6.444;2023-03-03T22:11:47;6.00;99.90
60473;DHT22;46318;52.716;6.444;2023-03-03T22:14:14;6.00;99.90
60473;DHT22;46318;52.716;6.444;2023-03-03T22:16:40;6.00;99.90
60473;DHT22;46318;52.716;6.444;2023-03-03T22:19:07;6.00;99.90
60473;DHT22;46318;52.716;6.444;2023-03-03T22:21:34;6.00;99.90
60473;DHT22;46318;52.716;6.444;2023-03-03T22:24:01;6.00;99.90
60473;DHT22;46318;52.716;6.444;2023-03-03T22:26:27;6.00;99.90
60473;DHT22;46318;52.716;6.444;2023-03-03T22:28:53;6.00;99.90
60473;DHT22;46318;52.716;6.444;2023-03-03T22:31:19;6.00;99.90
60473;DHT22;46318;52.716;6.444;2023-03-03T22:33:46;5.90;99.90
60473;DHT22;46318;52.716;6.444;2023-03-03T22:36:13;6.00;99.90
60473;DHT22;46318;52.716;6.444;2023-03-03T22:38:40;5.90;99.90
60473;DHT22;46318;52.716;6.444;2023-03-03T22:41:06;6.00;99.90
60473;DHT22;46318;52.716;6.444;2023-03-03T22:43:33;6.00;99.90
60473;DHT22;46318;52.716;6.444;2023-03-03T22:45:59;6.00;99.90
60473;DHT22;46318;52.716;6.444;2023-03-03T22:48:26;6.00;99.90
60473;DHT22;46318;52.716;6.444;2023-03-03T22:50:53;5.90;99.90
60473;DHT22;46318;52.716;6.444;2023-03-03T22:53:20;5.90;99.90
60473;DHT22;46318;52.716;6.444;2023-03-03T22:55:46;6.00;99.90
60473;DHT22;46318;52.716;6.444;2023-03-03T22:58:13;5.90;99.90